Time;durP1;ratioP1;P1;durP2;ratioP2;P2;SDS_P1;SDS_P2;PMS_P1;PMS_P2;Temp;Humidity;BMP_temperature;BMP_pressure;BME280_temperature;BME280_humidity;BME280_pressure;Samples;Min_cycle;Max_cycle;Signal;HPM_P1;HPM_P2
2023/03/23 00:01:26;;;;;;;15.88;14.20;;;11.50;99.90;;;;;;5039025;28;20711;-70
2023/03/23 00:03:56;;;;;;;16.77;13.98;;;11.40;99.90;;;;;;5057441;28;20048;-70
2023/03/23 00:06:25;;;;;;;15.65;14.18;;;11.50;99.90;;;;;;5052026;28;20087;-70
2023/03/23 00:08:56;;;;;;;15.93;13.85;;;11.50;99.90;;;;;;5042678;28;20127;-70
2023/03/23 00:11:28;;;;;;;15.02;13.60;;;11.50;99.90;;;;;;5050787;28;20040;-70
2023/03/23 00:13:57;;;;;;;14.13;12.85;;;11.50;99.90;;;;;;5054065;28;20082;-70
2023/03/23 00:16:37;;;;;;;14.27;12.63;;;11.50;99.90;;;;;;5039884;28;20032;-69
2023/03/23 00:19:08;;;;;;;14.10;12.70;;;11.50;99.90;;;;;;5035474;28;20046;-70
2023/03/23 00:21:39;;;;;;;13.75;12.30;;;11.50;99.90;;;;;;5037147;28;20052;-71
2023/03/23 00:24:10;;;;;;;13.82;12.48;;;11.50;99.90;;;;;;5045578;28;20052;-71
2023/03/23 00:26:40;;;;;;;12.45;11.25;;;11.60;99.90;;;;;;5059370;28;20050;-71
2023/03/23 00:29:13;;;;;;;13.00;11.63;;;11.50;99.90;;;;;;5052370;28;20055;-76
2023/03/23 00:31:39;;;;;;;11.88;10.65;;;11.50;99.90;;;;;;5045140;28;20510;-76
2023/03/23 00:34:05;;;;;;;14.73;11.15;;;11.60;99.90;;;;;;5040172;28;20150;-75
2023/03/23 00:36:42;;;;;;;12.95;11.13;;;11.60;99.90;;;;;;5033100;28;20119;-75
2023/03/23 00:39:08;;;;;;;14.00;11.20;;;11.60;99.90;;;;;;5048139;28;20043;-74
2023/03/23 00:41:38;;;;;;;14.85;11.65;;;11.50;99.90;;;;;;5024213;28;20792;-75
2023/03/23 00:44:04;;;;;;;12.52;11.20;;;11.50;99.90;;;;;;5055232;28;20177;-75
2023/03/23 00:46:32;;;;;;;11.68;10.32;;;11.50;99.90;;;;;;5053827;28;20123;-74
2023/03/23 00:48:58;;;;;;;13.55;10.85;;;11.50;99.90;;;;;;5052183;28;20052;-71
2023/03/23 00:51:24;;;;;;;13.32;11.13;;;11.50;99.90;;;;;;5034374;28;20387;-71
2023/03/23 00:53:50;;;;;;;12.48;9.80;;;11.50;99.90;;;;;;5057132;28;20064;-71
2023/03/23 00:56:16;;;;;;;13.63;9.00;;;11.50;99.90;;;;;;5041771;28;20410;-71
2023/03/23 00:58:42;;;;;;;9.73;8.63;;;11.50;99.90;;;;;;5061531;28;20047;-71
2023/03/23 01:01:11;;;;;;;10.40;8.65;;;11.50;99.90;;;;;;5041650;28;20126;-72
2023/03/23 01:03:40;;;;;;;11.50;9.30;;;11.50;99.90;;;;;;5018216;28;20051;-71
2023/03/23 01:06:12;;;;;;;10.70;8.65;;;11.60;99.90;;;;;;5051136;28;20071;-71
2023/03/23 01:08:45;;;;;;;9.90;8.07;;;11.50;99.90;;;;;;5055750;28;20517;-71
2023/03/23 01:11:16;;;;;;;10.25;7.97;;;11.50;99.90;;;;;;5052450;28;20044;-72
2023/03/23 01:13:43;;;;;;;10.07;7.80;;;11.50;99.90;;;;;;5055007;28;20517;-71
2023/03/23 01:16:10;;;;;;;9.15;7.47;;;11.50;99.90;;;;;;5051172;28;20410;-71
2023/03/23 01:18:36;;;;;;;11.13;8.15;;;11.50;99.90;;;;;;5031507;28;20032;-72
2023/03/23 01:21:11;;;;;;;11.40;7.50;;;11.50;99.90;;;;;;5046653;28;20067;-71
2023/03/23 01:23:38;;;;;;;9.57;6.82;;;11.50;99.90;;;;;;5054522;28;20040;-72
2023/03/23 01:26:12;;;;;;;8.50;6.40;;;11.50;99.90;;;;;;5036736;28;20726;-71
2023/03/23 01:28:38;;;;;;;9.07;6.80;;;11.50;99.90;;;;;;5038641;28;20072;-74
2023/03/23 01:31:07;;;;;;;9.00;6.40;;;11.50;99.90;;;;;;5037207;28;20507;-75
2023/03/23 01:33:33;;;;;;;10.57;6.35;;;11.50;99.90;;;;;;5049037;28;20113;-72
2023/03/23 01:36:05;;;;;;;10.02;6.45;;;11.50;99.90;;;;;;5050495;28;20161;-71
2023/03/23 01:38:32;;;;;;;10.57;6.60;;;11.50;99.90;;;;;;5048372;28;20113;-72
2023/03/23 01:40:58;;;;;;;9.27;6.18;;;11.50;99.90;;;;;;5066317;28;20074;-71
2023/03/23 01:43:24;;;;;;;9.63;5.72;;;11.50;99.90;;;;;;5058176;28;20577;-71
2023/03/23 01:45:50;;;;;;;7.38;5.72;;;11.50;99.90;;;;;;5049768;28;20157;-72
2023/03/23 01:48:25;;;;;;;8.18;5.75;;;11.50;99.90;;;;;;5059145;28;20733;-72
2023/03/23 01:50:56;;;;;;;11.10;5.50;;;11.60;99.90;;;;;;5060322;28;20074;-72
2023/03/23 01:53:26;;;;;;;9.07;5.35;;;11.50;99.90;;;;;;5044322;28;20079;-71
2023/03/23 01:55:55;;;;;;;11.23;5.68;;;11.60;99.90;;;;;;5064979;28;20044;-71
2023/03/23 01:58:27;;;;;;;7.57;5.55;;;11.60;99.90;;;;;;5057847;28;20383;-72
2023/03/23 02:00:55;;;;;;;9.23;5.53;;;11.60;99.90;;;;;;5043984;28;20044;-71
2023/03/23 02:03:23;;;;;;;6.93;5.13;;;11.60;99.90;;;;;;5048936;28;20048;-72
2023/03/23 02:05:50;;;;;;;8.02;5.00;;;11.70;99.90;;;;;;5060070;28;20040;-71
2023/03/23 02:08:18;;;;;;;10.48;5.43;;;11.70;99.90;;;;;;5048359;28;20084;-72
2023/03/23 02:10:44;;;;;;;6.82;5.45;;;11.70;99.90;;;;;;5026812;28;20135;-71
2023/03/23 02:13:12;;;;;;;9.30;5.15;;;11.70;99.90;;;;;;5049089;28;20119;-72
2023/03/23 02:15:59;;;;;;;7.97;4.88;;;11.70;99.90;;;;;;5064277;28;20055;-71
2023/03/23 02:18:43;;;;;;;8.75;5.32;;;11.70;99.90;;;;;;5045128;28;20038;-72
2023/03/23 02:21:27;;;;;;;7.47;5.20;;;11.70;99.90;;;;;;5045345;28;20039;-72
2023/03/23 02:24:17;;;;;;;10.15;5.05;;;11.80;99.90;;;;;;5062276;28;20772;-72
2023/03/23 02:27:08;;;;;;;8.35;4.85;;;11.70;99.90;;;;;;5065073;28;20052;-71
2023/03/23 02:30:07;;;;;;;8.18;5.22;;;11.70;99.90;;;;;;5015999;28;20113;-71
2023/03/23 02:33:03;;;;;;;9.27;4.90;;;11.60;99.90;;;;;;5047420;28;20776;-72
2023/03/23 02:35:43;;;;;;;8.18;4.55;;;11.60;99.90;;;;;;5044444;28;20170;-72
2023/03/23 02:38:23;;;;;;;8.60;5.03;;;11.60;99.90;;;;;;5063928;28;20059;-72
2023/03/23 02:40:52;;;;;;;10.10;4.88;;;11.60;99.90;;;;;;5057983;28;20048;-72
2023/03/23 02:43:22;;;;;;;9.55;4.50;;;11.60;99.90;;;;;;5047830;28;20185;-72
2023/03/23 02:45:50;;;;;;;7.63;4.75;;;11.70;99.90;;;;;;5045728;28;20039;-72
2023/03/23 02:48:19;;;;;;;7.10;4.78;;;11.60;99.90;;;;;;5058890;28;20036;-72
2023/03/23 02:50:53;;;;;;;8.45;5.18;;;11.60;99.90;;;;;;5062944;28;20050;-72
2023/03/23 02:53:22;;;;;;;7.55;4.53;;;11.70;99.90;;;;;;5054643;28;20040;-72
2023/03/23 02:55:52;;;;;;;8.20;4.53;;;11.70;99.90;;;;;;5061495;28;20058;-71
2023/03/23 02:58:19;;;;;;;8.02;4.07;;;11.70;99.90;;;;;;5047921;28;20082;-72
2023/03/23 03:00:49;;;;;;;7.95;5.13;;;11.60;99.90;;;;;;5042273;28;20044;-72
2023/03/23 03:03:19;;;;;;;7.25;4.50;;;11.60;99.90;;;;;;5021512;28;20132;-72
2023/03/23 03:06:03;;;;;;;;;;;11.60;99.90;;;;;;5051806;28;20056;-72
2023/03/23 03:08:44;;;;;;;6.80;3.97;;;11.60;99.90;;;;;;5060235;28;19920;-71
2023/03/23 03:11:13;;;;;;;6.32;4.10;;;11.60;99.90;;;;;;5039705;28;20056;-72
2023/03/23 03:14:18;;;;;;;8.93;4.45;;;11.60;99.90;;;;;;5061586;28;20075;-72
2023/03/23 03:17:02;;;;;;;7.30;4.30;;;11.60;99.90;;;;;;5055700;28;20183;-72
2023/03/23 03:19:38;;;;;;;5.68;4.03;;;11.60;99.90;;;;;;5055107;28;20753;-72
2023/03/23 03:22:04;;;;;;;6.68;4.05;;;11.60;99.90;;;;;;5059089;28;20047;-72
2023/03/23 03:24:32;;;;;;;9.02;4.68;;;11.50;99.90;;;;;;5050780;28;20040;-71
2023/03/23 03:27:00;;;;;;;8.90;4.60;;;11.60;99.90;;;;;;5007386;28;20045;-72
2023/03/23 03:29:32;;;;;;;7.25;4.55;;;11.60;99.90;;;;;;5063369;28;20040;-72
2023/03/23 03:31:59;;;;;;;6.88;5.00;;;11.60;99.90;;;;;;5054088;28;20067;-72
2023/03/23 03:34:26;;;;;;;7.35;5.00;;;11.60;99.90;;;;;;5054482;28;20051;-72
2023/03/23 03:36:55;;;;;;;6.25;4.78;;;11.70;99.90;;;;;;5038645;28;20048;-72
2023/03/23 03:39:21;;;;;;;6.82;4.97;;;11.70;99.90;;;;;;5051837;28;20052;-72
2023/03/23 03:41:47;;;;;;;8.15;5.30;;;11.70;99.90;;;;;;5064220;28;20058;-71
2023/03/23 03:44:14;;;;;;;7.55;5.35;;;11.70;99.90;;;;;;5062449;28;20440;-72
2023/03/23 03:46:40;;;;;;;9.77;5.05;;;11.70;99.90;;;;;;5052217;28;20032;-72
2023/03/23 03:49:09;;;;;;;8.55;5.60;;;11.60;99.90;;;;;;5034746;28;20044;-72
2023/03/23 03:51:35;;;;;;;7.47;5.50;;;11.60;99.90;;;;;;5064495;28;20043;-71
2023/03/23 03:54:02;;;;;;;6.97;4.57;;;11.60;99.90;;;;;;5050428;28;20044;-72
2023/03/23 03:56:27;;;;;;;8.30;5.15;;;11.60;99.90;;;;;;5049835;28;20462;-72
2023/03/23 03:58:54;;;;;;;7.13;4.93;;;11.60;99.90;;;;;;5049202;28;20051;-71
2023/03/23 04:01:25;;;;;;;8.27;5.40;;;11.60;99.90;;;;;;5063667;28;20352;-75
2023/03/23 04:03:51;;;;;;;8.90;5.63;;;11.60;99.90;;;;;;5065454;28;20405;-75
2023/03/23 04:06:17;;;;;;;8.60;5.35;;;11.70;99.90;;;;;;5044491;28;20079;-75
2023/03/23 04:08:44;;;;;;;7.70;5.18;;;11.60;99.90;;;;;;5063606;28;20051;-71
2023/03/23 04:11:13;;;;;;;7.65;5.20;;;11.70;99.90;;;;;;5044611;28;20123;-71
2023/03/23 04:13:39;;;;;;;7.57;5.70;;;11.70;99.90;;;;;;5048170;28;20135;-71
2023/03/23 04:16:06;;;;;;;9.63;5.75;;;11.70;99.90;;;;;;5066304;28;20044;-72
2023/03/23 04:18:33;;;;;;;8.95;5.63;;;11.70;99.90;;;;;;5028349;28;20135;-72
2023/03/23 04:21:01;;;;;;;7.18;5.70;;;11.70;99.90;;;;;;5058303;28;20105;-71
2023/03/23 04:23:30;;;;;;;9.32;5.85;;;11.70;99.90;;;;;;5063556;28;20487;-72
2023/03/23 04:25:57;;;;;;;7.45;5.38;;;11.70;99.90;;;;;;5050193;28;20131;-74
2023/03/23 04:28:27;;;;;;;9.00;6.00;;;11.80;99.90;;;;;;5064078;28;20136;-72
2023/03/23 04:30:54;;;;;;;7.57;5.82;;;11.80;99.90;;;;;;5049912;28;20032;-72
2023/03/23 04:33:24;;;;;;;8.88;5.50;;;11.70;99.90;;;;;;5064992;28;20449;-72
2023/03/23 04:35:56;;;;;;;9.32;6.57;;;11.70;99.90;;;;;;5047862;28;20036;-72
2023/03/23 04:38:24;;;;;;;9.50;6.25;;;11.70;99.90;;;;;;5047012;28;20043;-75
2023/03/23 04:40:52;;;;;;;9.88;6.93;;;11.70;99.90;;;;;;5043112;28;20142;-76
2023/03/23 04:43:21;;;;;;;9.05;6.43;;;11.70;99.90;;;;;;5057977;28;20048;-75
2023/03/23 04:45:55;;;;;;;10.65;7.18;;;11.60;99.90;;;;;;5068038;28;20089;-75
2023/03/23 04:48:23;;;;;;;9.95;6.82;;;11.60;99.90;;;;;;5060607;28;20527;-75
2023/03/23 04:50:50;;;;;;;10.38;6.90;;;11.60;99.90;;;;;;5047755;28;20048;-74
2023/03/23 04:53:17;;;;;;;10.68;4.80;;;11.50;99.90;;;;;;5039217;28;20094;-78
2023/03/23 04:55:43;;;;;;;8.20;4.68;;;11.40;99.90;;;;;;5049573;28;20085;-77
2023/03/23 04:58:10;;;;;;;7.38;2.83;;;11.30;99.90;;;;;;5047577;28;20536;-80
2023/03/23 05:00:36;;;;;;;6.43;2.45;;;11.10;99.90;;;;;;5065157;28;20058;-76
2023/03/23 05:03:02;;;;;;;7.57;2.92;;;10.90;99.90;;;;;;5050870;28;20064;-75
2023/03/23 05:05:31;;;;;;;5.57;3.08;;;10.70;99.90;;;;;;5068109;28;20048;-76
2023/03/23 05:07:57;;;;;;;7.15;3.40;;;10.60;99.90;;;;;;5039681;28;20044;-76
2023/03/23 05:10:23;;;;;;;8.35;3.40;;;10.50;99.90;;;;;;5067656;28;20047;-76
2023/03/23 05:12:49;;;;;;;7.78;2.85;;;10.40;99.90;;;;;;5064772;28;20032;-77
2023/03/23 05:15:16;;;;;;;7.55;2.20;;;10.30;99.90;;;;;;5053811;28;20047;-76
2023/03/23 05:17:45;;;;;;;7.95;2.83;;;10.30;99.90;;;;;;5049525;28;20447;-76
2023/03/23 05:20:14;;;;;;;11.40;3.25;;;10.20;99.90;;;;;;5050093;28;20127;-75
2023/03/23 05:22:41;;;;;;;10.55;3.63;;;10.20;99.90;;;;;;5060629;28;20131;-76
2023/03/23 05:25:11;;;;;;;8.80;3.60;;;10.20;99.90;;;;;;5057352;28;20510;-72
2023/03/23 05:27:38;;;;;;;9.95;3.83;;;10.20;99.90;;;;;;5043924;28;20532;-72
2023/03/23 05:30:06;;;;;;;14.25;4.35;;;10.20;99.90;;;;;;5046664;28;20132;-72
2023/03/23 05:32:32;;;;;;;11.45;3.65;;;10.20;99.90;;;;;;5063465;28;20113;-73
2023/03/23 05:35:00;;;;;;;11.35;3.58;;;10.20;99.90;;;;;;5057771;28;20556;-71
2023/03/23 05:37:31;;;;;;;11.32;3.50;;;10.20;99.90;;;;;;5051601;28;20123;-71
2023/03/23 05:40:01;;;;;;;11.18;3.85;;;10.30;99.90;;;;;;5035140;28;20036;-72
2023/03/23 05:42:27;;;;;;;15.13;4.80;;;10.30;99.90;;;;;;5059253;28;20044;-71
2023/03/23 05:44:53;;;;;;;12.07;4.18;;;10.40;99.90;;;;;;5048856;28;20093;-71
2023/03/23 05:47:19;;;;;;;10.43;3.97;;;10.50;99.90;;;;;;5034763;28;20136;-72
2023/03/23 05:49:45;;;;;;;12.82;4.18;;;10.50;99.90;;;;;;5037994;28;20115;-72
2023/03/23 05:52:11;;;;;;;14.45;3.80;;;10.60;99.90;;;;;;5015902;28;20039;-72
2023/03/23 05:54:37;;;;;;;11.30;3.40;;;10.60;99.90;;;;;;5053078;28;20051;-72
2023/03/23 05:57:03;;;;;;;11.57;3.38;;;10.50;99.90;;;;;;5046852;28;20045;-72
2023/03/23 05:59:33;;;;;;;11.63;3.75;;;10.50;99.90;;;;;;5060930;28;20041;-71
2023/03/23 06:01:59;;;;;;;13.68;3.20;;;10.50;99.90;;;;;;5040683;28;20047;-72
2023/03/23 06:04:27;;;;;;;10.80;3.10;;;10.50;99.90;;;;;;5048817;28;20086;-71
2023/03/23 06:06:53;;;;;;;13.68;3.60;;;10.50;99.90;;;;;;5044791;28;20067;-72
2023/03/23 06:09:20;;;;;;;11.80;4.18;;;10.50;99.90;;;;;;5065829;28;20533;-73
2023/03/23 06:11:47;;;;;;;13.10;3.47;;;10.50;99.90;;;;;;5052490;28;20048;-72
2023/03/23 06:14:17;;;;;;;10.52;3.20;;;10.40;99.90;;;;;;5049394;28;20499;-72
2023/03/23 06:16:43;;;;;;;10.25;3.03;;;10.40;99.90;;;;;;5022765;28;20051;-72
2023/03/23 06:19:08;;;;;;;8.93;3.47;;;10.40;99.90;;;;;;5064755;28;20048;-71
2023/03/23 06:21:34;;;;;;;10.85;3.15;;;10.40;99.90;;;;;;5057272;28;20040;-72
2023/03/23 06:24:00;;;;;;;9.27;3.20;;;10.40;99.90;;;;;;5044161;28;20082;-72
2023/03/23 06:26:31;;;;;;;10.68;3.70;;;10.40;99.90;;;;;;5046120;28;20107;-72
2023/03/23 06:28:57;;;;;;;13.07;3.97;;;10.40;99.90;;;;;;5061501;28;20044;-72
2023/03/23 06:31:24;;;;;;;9.85;3.15;;;10.40;99.90;;;;;;5026357;28;20555;-72
2023/03/23 06:33:51;;;;;;;13.85;3.53;;;10.40;99.90;;;;;;5060655;28;20075;-72
2023/03/23 06:36:23;;;;;;;12.93;3.33;;;10.40;99.90;;;;;;5054204;28;20508;-72
2023/03/23 06:38:49;;;;;;;10.98;4.22;;;10.40;99.90;;;;;;5040191;28;20498;-72
2023/03/23 06:41:15;;;;;;;13.35;4.22;;;10.40;99.90;;;;;;5056423;28;20054;-72
2023/03/23 06:43:40;;;;;;;13.38;3.78;;;10.50;99.90;;;;;;5037024;28;20036;-72
2023/03/23 06:46:07;;;;;;;15.23;4.25;;;10.50;99.90;;;;;;5043246;28;20079;-73
2023/03/23 06:48:36;;;;;;;18.15;4.28;;;10.50;99.90;;;;;;5053984;28;20185;-73
2023/03/23 06:51:02;;;;;;;13.48;4.13;;;10.50;99.90;;;;;;5024462;28;20138;-71
2023/03/23 06:53:28;;;;;;;13.50;3.95;;;10.50;99.90;;;;;;5029304;28;20181;-72
2023/03/23 06:55:54;;;;;;;20.02;5.18;;;10.60;99.90;;;;;;5039328;28;20044;-71
2023/03/23 06:58:19;;;;;;;21.13;4.70;;;10.70;99.90;;;;;;5028110;28;20032;-72
2023/03/23 07:00:52;;;;;;;19.55;4.78;;;10.70;99.90;;;;;;5031210;28;20542;-72
2023/03/23 07:03:18;;;;;;;18.65;4.50;;;10.70;99.90;;;;;;5030042;28;20063;-72
2023/03/23 07:05:47;;;;;;;21.10;4.85;;;10.80;99.90;;;;;;5044437;28;20719;-71
2023/03/23 07:08:13;;;;;;;17.63;4.22;;;10.80;99.90;;;;;;5047275;28;21061;-75
2023/03/23 07:10:38;;;;;;;15.55;4.85;;;10.80;99.90;;;;;;5030675;28;20498;-76
2023/03/23 07:13:04;;;;;;;19.27;4.78;;;10.90;99.90;;;;;;5066791;28;20131;-75
2023/03/23 07:15:30;;;;;;;17.85;4.97;;;10.80;99.90;;;;;;5054673;28;20055;-75
2023/03/23 07:17:56;;;;;;;17.25;5.03;;;10.90;99.90;;;;;;5041831;28;20548;-75
2023/03/23 07:20:22;;;;;;;20.05;4.95;;;10.90;99.90;;;;;;5063551;28;20341;-75
2023/03/23 07:22:49;;;;;;;16.02;4.60;;;10.90;99.90;;;;;;5047722;28;20044;-75
2023/03/23 07:25:18;;;;;;;16.95;4.45;;;10.90;99.90;;;;;;5048851;28;20063;-75
2023/03/23 07:27:45;;;;;;;20.27;4.85;;;11.00;99.90;;;;;;5033517;28;20062;-75
2023/03/23 07:30:13;;;;;;;21.33;5.35;;;11.00;99.90;;;;;;5030852;28;20051;-75
2023/03/23 07:32:39;;;;;;;17.42;4.50;;;11.00;99.90;;;;;;5050687;28;20063;-75
2023/03/23 07:35:05;;;;;;;16.90;4.22;;;11.00;99.90;;;;;;5008510;28;20053;-76
2023/03/23 07:37:35;;;;;;;18.25;4.97;;;11.10;99.90;;;;;;5039220;28;20059;-75
2023/03/23 07:40:14;;;;;;;17.38;3.95;;;11.20;99.90;;;;;;5005790;28;20052;-74
2023/03/23 07:42:44;;;;;;;18.23;4.82;;;11.20;99.90;;;;;;4999866;28;20483;-75
2023/03/23 07:45:12;;;;;;;15.85;4.50;;;11.30;99.90;;;;;;5031838;28;20072;-74
2023/03/23 07:47:39;;;;;;;16.35;4.70;;;11.30;99.90;;;;;;5037304;28;20055;-74
2023/03/23 07:50:06;;;;;;;19.02;4.88;;;11.30;99.90;;;;;;5010921;28;20497;-75
2023/03/23 07:52:33;;;;;;;17.08;4.15;;;11.30;99.90;;;;;;5016912;28;20041;-74
2023/03/23 07:55:01;;;;;;;18.45;5.13;;;11.40;99.90;;;;;;5033200;28;20426;-75
2023/03/23 07:57:28;;;;;;;19.90;4.65;;;11.40;99.90;;;;;;5013276;28;20268;-75
2023/03/23 07:59:54;;;;;;;21.95;5.55;;;11.40;99.90;;;;;;5020307;28;20044;-74
2023/03/23 08:02:20;;;;;;;21.38;5.30;;;11.50;99.90;;;;;;5025664;28;20768;-74
2023/03/23 08:04:47;;;;;;;28.17;7.55;;;11.50;99.90;;;;;;4997330;28;20478;-74
2023/03/23 08:07:13;;;;;;;23.42;5.13;;;11.50;99.90;;;;;;5023224;28;20083;-75
2023/03/23 08:09:39;;;;;;;21.15;5.70;;;11.50;99.90;;;;;;5035760;28;20052;-74
2023/03/23 08:12:05;;;;;;;17.92;4.93;;;11.50;99.90;;;;;;5001518;28;20044;-75
2023/03/23 08:14:31;;;;;;;21.63;5.05;;;11.50;99.90;;;;;;5043958;28;20521;-75
2023/03/23 08:16:57;;;;;;;24.90;6.35;;;11.50;99.90;;;;;;5034787;28;20052;-74
2023/03/23 08:19:23;;;;;;;23.38;5.70;;;11.60;99.90;;;;;;5021309;28;20085;-75
2023/03/23 08:21:53;;;;;;;17.65;4.68;;;11.60;99.90;;;;;;5029282;28;20437;-74
2023/03/23 08:24:19;;;;;;;26.27;5.40;;;11.60;99.90;;;;;;5045443;28;20055;-74
2023/03/23 08:26:45;;;;;;;24.83;5.22;;;11.60;99.90;;;;;;5020163;28;20041;-75
2023/03/23 08:29:11;;;;;;;26.90;5.68;;;11.60;99.90;;;;;;5009832;28;20412;-74
2023/03/23 08:31:39;;;;;;;20.83;6.03;;;11.70;99.90;;;;;;5008772;28;20040;-74
2023/03/23 08:34:05;;;;;;;20.67;5.90;;;11.70;99.90;;;;;;5047431;28;20147;-74
2023/03/23 08:36:37;;;;;;;22.50;5.53;;;11.70;99.90;;;;;;5032276;28;20053;-74
2023/03/23 08:39:05;;;;;;;22.98;5.70;;;11.70;99.90;;;;;;5052616;28;20071;-74
2023/03/23 08:41:31;;;;;;;20.65;5.00;;;11.80;99.90;;;;;;5038469;28;20044;-74
2023/03/23 08:43:57;;;;;;;19.08;5.35;;;11.80;99.90;;;;;;5055854;28;20047;-74
2023/03/23 08:46:23;;;;;;;26.73;6.35;;;11.80;99.90;;;;;;5041600;28;20050;-75
2023/03/23 08:48:49;;;;;;;22.98;5.72;;;11.80;99.90;;;;;;5063728;28;20048;-75
2023/03/23 08:51:15;;;;;;;23.85;6.50;;;11.80;99.90;;;;;;5038046;28;20059;-75
2023/03/23 08:53:42;;;;;;;22.65;4.80;;;11.90;99.90;;;;;;5016408;28;20052;-75
2023/03/23 08:56:10;;;;;;;25.08;5.57;;;12.00;99.90;;;;;;5021834;28;20067;-74
2023/03/23 08:58:39;;;;;;;18.50;5.57;;;11.90;99.90;;;;;;5036797;28;20052;-75
2023/03/23 09:01:07;;;;;;;24.92;5.85;;;11.90;99.90;;;;;;5046924;28;20044;-74
2023/03/23 09:03:34;;;;;;;19.70;5.20;;;11.80;99.90;;;;;;5051153;28;20074;-74
2023/03/23 09:06:02;;;;;;;19.30;6.00;;;11.80;99.90;;;;;;5034676;28;20044;-74
2023/03/23 09:08:32;;;;;;;20.42;4.10;;;11.70;99.90;;;;;;5039954;28;20044;-74
2023/03/23 09:11:03;;;;;;;24.88;5.70;;;11.70;99.90;;;;;;5052608;28;20062;-75
2023/03/23 09:13:33;;;;;;;21.33;5.85;;;11.70;99.90;;;;;;5059277;28;20044;-75
2023/03/23 09:15:58;;;;;;;21.92;5.95;;;11.80;99.90;;;;;;5040741;28;20127;-75
2023/03/23 09:18:25;;;;;;;24.70;5.50;;;12.10;99.90;;;;;;5050633;28;20130;-75
2023/03/23 09:20:52;;;;;;;22.52;5.85;;;12.40;99.90;;;;;;5039018;28;20040;-74
2023/03/23 09:23:18;;;;;;;23.48;5.70;;;12.50;99.90;;;;;;5056909;28;20092;-75
2023/03/23 09:25:43;;;;;;;24.95;5.43;;;12.60;99.90;;;;;;5049270;28;20319;-74
2023/03/23 09:28:09;;;;;;;22.50;5.25;;;12.70;99.90;;;;;;5050226;28;20044;-75
2023/03/23 09:30:37;;;;;;;23.95;5.85;;;12.80;99.90;;;;;;5049624;28;20044;-74
2023/03/23 09:33:04;;;;;;;22.23;5.50;;;12.90;99.90;;;;;;5055334;28;20448;-74
2023/03/23 09:35:35;;;;;;;18.38;5.20;;;12.90;99.90;;;;;;5048331;28;20042;-74
2023/03/23 09:38:02;;;;;;;23.55;5.78;;;12.80;99.90;;;;;;5051899;28;20082;-73
2023/03/23 09:40:33;;;;;;;21.80;5.05;;;12.70;99.90;;;;;;5059693;28;20052;-75
2023/03/23 09:43:11;;;;;;;16.55;4.30;;;12.70;99.90;;;;;;5049706;28;20123;-77
2023/03/23 09:46:04;;;;;;;23.27;5.35;;;12.60;99.90;;;;;;5056833;28;20131;-74
2023/03/23 09:48:56;;;;;;;19.30;5.13;;;12.50;99.90;;;;;;5043216;28;20046;-74
2023/03/23 09:51:38;;;;;;;19.30;4.82;;;12.60;99.90;;;;;;5052309;28;20298;-74
2023/03/23 09:54:27;;;;;;;16.45;4.90;;;12.70;99.90;;;;;;5031770;28;20091;-74
2023/03/23 09:56:54;;;;;;;20.25;5.00;;;12.90;99.90;;;;;;5046646;28;20070;-74
2023/03/23 09:59:46;;;;;;;16.80;4.18;;;13.00;99.90;;;;;;5057510;28;20660;-73
2023/03/23 10:02:38;;;;;;;17.33;4.60;;;12.90;99.90;;;;;;5048365;28;20101;-74
2023/03/23 10:05:14;;;;;;;16.45;4.47;;;12.80;99.90;;;;;;5034462;28;20055;-76
2023/03/23 10:07:40;;;;;;;17.50;4.65;;;12.70;99.90;;;;;;5045204;28;20074;-74
2023/03/23 10:10:13;;;;;;;18.60;4.78;;;12.80;99.90;;;;;;5036618;28;20040;-74
2023/03/23 10:13:19;;;;;;;15.82;4.20;;;13.00;99.90;;;;;;5040157;28;20068;-73
2023/03/23 10:15:46;;;;;;;15.10;4.10;;;13.40;99.90;;;;;;5038548;28;20062;-74
2023/03/23 10:18:34;;;;;;;18.48;4.75;;;13.50;99.90;;;;;;5017491;28;20060;-74
2023/03/23 10:21:03;;;;;;;17.48;4.50;;;13.40;99.90;;;;;;5054095;28;20429;-75
2023/03/23 10:23:42;;;;;;;16.17;4.07;;;13.30;99.90;;;;;;5038066;28;20041;-75
2023/03/23 10:26:28;;;;;;;14.52;4.07;;;13.40;99.90;;;;;;5044639;28;20043;-74
2023/03/23 10:29:00;;;;;;;17.13;4.78;;;13.40;99.90;;;;;;5040789;28;20103;-74
2023/03/23 10:31:32;;;;;;;14.55;3.50;;;13.30;99.90;;;;;;5034778;28;20051;-75
2023/03/23 10:34:04;;;;;;;13.88;4.47;;;13.20;99.90;;;;;;5048646;28;20076;-74
2023/03/23 10:36:37;;;;;;;13.30;3.28;;;13.10;99.90;;;;;;5033810;28;20055;-75
2023/03/23 10:39:21;;;;;;;14.18;3.17;;;12.90;99.90;;;;;;5039670;28;20039;-74
2023/03/23 10:41:47;;;;;;;13.32;3.50;;;13.00;99.90;;;;;;5052180;28;20072;-74
2023/03/23 10:44:27;;;;;;;10.73;3.45;;;13.20;99.90;;;;;;5043838;28;20214;-75
2023/03/23 10:47:02;;;;;;;12.93;3.55;;;13.40;99.90;;;;;;5037713;28;20042;-75
2023/03/23 10:49:49;;;;;;;12.00;2.97;;;13.50;99.90;;;;;;5032604;28;20127;-75
2023/03/23 10:52:38;;;;;;;15.27;3.72;;;13.60;99.90;;;;;;5053801;28;20044;-74
2023/03/23 10:55:06;;;;;;;11.00;2.88;;;13.70;99.90;;;;;;5039769;28;20080;-75
2023/03/23 10:57:35;;;;;;;9.88;3.17;;;13.80;99.90;;;;;;5050918;28;20503;-74
2023/03/23 11:00:13;;;;;;;13.63;3.20;;;13.80;99.90;;;;;;5049861;28;20059;-74
2023/03/23 11:02:42;;;;;;;9.95;2.80;;;13.70;99.90;;;;;;5055763;28;20058;-75
2023/03/23 11:05:20;;;;;;;10.18;3.30;;;13.70;99.90;;;;;;5038752;28;20048;-75
2023/03/23 11:07:55;;;;;;;13.35;3.10;;;13.80;99.90;;;;;;5038231;28;20041;-75
2023/03/23 11:10:35;;;;;;;11.10;3.13;;;14.00;99.90;;;;;;5064765;28;20052;-75
2023/03/23 11:13:04;;;;;;;10.73;2.90;;;14.20;99.90;;;;;;5051374;28;20521;-73
2023/03/23 11:15:50;;;;;;;9.07;3.28;;;14.30;99.90;;;;;;5039240;28;20130;-75
2023/03/23 11:18:34;;;;;;;10.15;2.47;;;14.30;99.90;;;;;;5048892;28;20102;-77
2023/03/23 11:21:00;;;;;;;9.18;2.80;;;14.20;99.90;;;;;;5054829;28;20044;-76
2023/03/23 11:23:31;;;;;;;8.77;2.58;;;14.10;99.90;;;;;;5019772;28;20040;-76
2023/03/23 11:25:59;;;;;;;9.40;2.50;;;14.20;99.90;;;;;;5052384;28;20055;-76
2023/03/23 11:28:32;;;;;;;11.60;3.40;;;14.30;99.90;;;;;;5053971;28;20430;-77
2023/03/23 11:31:03;;;;;;;11.90;3.25;;;14.50;99.90;;;;;;5050712;28;20048;-76
2023/03/23 11:33:50;;;;;;;11.40;2.95;;;14.70;99.90;;;;;;5048612;28;20060;-77
2023/03/23 11:36:17;;;;;;;10.75;2.60;;;14.90;99.90;;;;;;5052249;28;20087;-76
2023/03/23 11:38:44;;;;;;;12.60;3.05;;;15.00;99.90;;;;;;5038653;28;20070;-77
2023/03/23 11:41:18;;;;;;;10.18;3.40;;;15.10;99.90;;;;;;5041620;28;20367;-76
2023/03/23 11:43:46;;;;;;;12.60;3.28;;;15.10;99.90;;;;;;5039631;28;20717;-77
2023/03/23 11:46:34;;;;;;;7.72;2.70;;;15.10;99.90;;;;;;5057035;28;20119;-76
2023/03/23 11:49:26;;;;;;;12.55;3.28;;;15.10;99.10;;;;;;5038312;28;20040;-78
2023/03/23 11:52:02;;;;;;;8.98;2.63;;;15.10;99.00;;;;;;5035024;28;20494;-76
2023/03/23 11:54:42;;;;;;;11.43;3.28;;;15.10;99.70;;;;;;5053026;28;20048;-76
2023/03/23 11:57:11;;;;;;;8.47;2.97;;;15.00;99.90;;;;;;5054330;28;20051;-76
2023/03/23 11:59:38;;;;;;;9.82;2.60;;;15.00;99.90;;;;;;5032606;28;20044;-76
2023/03/23 12:02:07;;;;;;;11.77;2.65;;;15.30;99.90;;;;;;5051672;28;20051;-75
2023/03/23 12:04:40;;;;;;;11.48;2.95;;;15.50;99.90;;;;;;5052517;28;20201;-76
2023/03/23 12:07:10;;;;;;;10.25;2.58;;;15.50;97.90;;;;;;5056014;28;20160;-75
2023/03/23 12:09:54;;;;;;;10.38;2.85;;;15.60;97.20;;;;;;5042884;28;20048;-77
2023/03/23 12:13:08;;;;;;;10.50;2.90;;;15.70;96.70;;;;;;5046151;28;20668;-75
2023/03/23 12:15:42;;;;;;;11.27;2.80;;;15.50;97.30;;;;;;4983306;28;20144;-75
2023/03/23 12:18:20;;;;;;;9.90;2.78;;;15.40;95.80;;;;;;5046854;28;20049;-75
2023/03/23 12:21:03;;;;;;;9.25;2.85;;;15.30;98.30;;;;;;5042751;28;20730;-75
2023/03/23 12:23:41;;;;;;;10.20;2.63;;;15.20;96.30;;;;;;5039313;28;20048;-75
2023/03/23 12:26:18;;;;;;;12.25;3.17;;;15.00;97.20;;;;;;5050845;28;20125;-74
2023/03/23 12:28:50;;;;;;;10.90;2.90;;;14.90;96.60;;;;;;5055716;28;20174;-75
2023/03/23 12:31:26;;;;;;;12.85;3.58;;;15.00;99.90;;;;;;5041657;28;20043;-75
2023/03/23 12:33:58;;;;;;;13.75;3.08;;;15.10;98.30;;;;;;5053914;28;20051;-75
2023/03/23 12:36:39;;;;;;;12.85;2.95;;;15.20;99.90;;;;;;5055406;28;20048;-77
2023/03/23 12:39:27;;;;;;;12.02;2.60;;;15.40;98.30;;;;;;5046208;28;20089;-77
2023/03/23 12:42:26;;;;;;;10.98;2.90;;;15.60;99.20;;;;;;5065029;28;20036;-79
2023/03/23 12:45:12;;;;;;;13.40;3.65;;;15.60;97.90;;;;;;5044649;28;20391;-75
2023/03/23 12:47:44;;;;;;;11.57;3.00;;;15.60;97.60;;;;;;5050126;28;20048;-77
2023/03/23 12:50:41;;;;;;;10.70;2.83;;;15.70;97.00;;;;;;5053891;28;20048;-76
2023/03/23 12:53:27;;;;;;;10.38;3.33;;;15.70;97.80;;;;;;5052797;28;20054;-75
2023/03/23 12:56:33;;;;;;;11.18;3.40;;;15.60;97.30;;;;;;5054549;28;20059;-75
2023/03/23 12:59:32;;;;;;;9.90;3.35;;;15.60;98.50;;;;;;5060198;28;20044;-75
2023/03/23 13:02:18;;;;;;;12.43;3.40;;;15.70;99.90;;;;;;5041334;28;20036;-76